sensor_id;sensor_type;location;lat;lon;timestamp;P1;durP1;ratioP1;P2;durP2;ratioP2
64826;SDS011;51265;53.972;12.286;2023-04-29T00:00:35;10.23;;;6.60;;
64826;SDS011;51265;53.972;12.286;2023-04-29T00:03:02;12.55;;;7.63;;
64826;SDS011;51265;53.972;12.286;2023-04-29T00:05:28;14.00;;;7.13;;
64826;SDS011;51265;53.972;12.286;2023-04-29T00:07:55;12.13;;;6.22;;
64826;SDS011;51265;53.972;12.286;2023-04-29T00:10:22;11.07;;;6.45;;
64826;SDS011;51265;53.972;12.286;2023-04-29T00:12:48;14.68;;;7.45;;
64826;SDS011;51265;53.972;12.286;2023-04-29T00:15:16;14.25;;;7.70;;
64826;SDS011;51265;53.972;12.286;2023-04-29T00:17:43;11.75;;;7.60;;
64826;SDS011;51265;53.972;12.286;2023-04-29T00:20:10;14.90;;;7.38;;
64826;SDS011;51265;53.972;12.286;2023-04-29T00:22:37;18.40;;;7.93;;
64826;SDS011;51265;53.972;12.286;2023-04-29T00:25:04;13.23;;;7.35;;
64826;SDS011;51265;53.972;12.286;2023-04-29T00:27:31;11.38;;;7.32;;
64826;SDS011;51265;53.972;12.286;2023-04-29T00:29:58;17.25;;;7.60;;
64826;SDS011;51265;53.972;12.286;2023-04-29T00:32:24;15.38;;;8.13;;
64826;SDS011;51265;53.972;12.286;2023-04-29T00:34:51;13.38;;;8.02;;
64826;SDS011;51265;53.972;12.286;2023-04-29T00:37:17;16.58;;;8.75;;
64826;SDS011;51265;53.972;12.286;2023-04-29T00:39:44;13.80;;;8.18;;
64826;SDS011;51265;53.972;12.286;2023-04-29T00:42:10;14.18;;;7.57;;
64826;SDS011;51265;53.972;12.286;2023-04-29T00:44:37;14.07;;;8.00;;
64826;SDS011;51265;53.972;12.286;2023-04-29T00:47:04;18.13;;;8.90;;
64826;SDS011;51265;53.972;12.286;2023-04-29T00:49:31;15.98;;;8.15;;
64826;SDS011;51265;53.972;12.286;2023-04-29T00:51:58;16.40;;;8.30;;
64826;SDS011;51265;53.972;12.286;2023-04-29T00:54:25;17.98;;;8.70;;
64826;SDS011;51265;53.972;12.286;2023-04-29T00:56:52;16.17;;;8.45;;
64826;SDS011;51265;53.972;12.286;2023-04-29T00:59:21;15.48;;;8.10;;
64826;SDS011;51265;53.972;12.286;2023-04-29T01:01:49;17.75;;;8.65;;
64826;SDS011;51265;53.972;12.286;2023-04-29T01:04:15;16.13;;;8.20;;
64826;SDS011;51265;53.972;12.286;2023-04-29T01:12:25;14.40;;;7.85;;
64826;SDS011;51265;53.972;12.286;2023-04-29T01:15:22;18.05;;;8.40;;
64826;SDS011;51265;53.972;12.286;2023-04-29T01:18:09;14.98;;;8.60;;
64826;SDS011;51265;53.972;12.286;2023-04-29T01:20:39;15.25;;;9.02;;
64826;SDS011;51265;53.972;12.286;2023-04-29T01:23:06;13.73;;;8.75;;
64826;SDS011;51265;53.972;12.286;2023-04-29T01:25:34;15.80;;;8.27;;
64826;SDS011;51265;53.972;12.286;2023-04-29T01:28:19;16.42;;;9.10;;
64826;SDS011;51265;53.972;12.286;2023-04-29T01:31:14;16.23;;;9.45;;
64826;SDS011;51265;53.972;12.286;2023-04-29T01:34:01;15.73;;;8.88;;
64826;SDS011;51265;53.972;12.286;2023-04-29T01:37:37;16.48;;;9.43;;
64826;SDS011;51265;53.972;12.286;2023-04-29T01:42:44;14.63;;;9.45;;
64826;SDS011;51265;53.972;12.286;2023-04-29T01:45:16;16.85;;;9.57;;
64826;SDS011;51265;53.972;12.286;2023-04-29T01:47:45;19.08;;;9.32;;
64826;SDS011;51265;53.972;12.286;2023-04-29T01:50:12;17.98;;;10.13;;
64826;SDS011;51265;53.972;12.286;2023-04-29T01:52:39;17.95;;;10.00;;
64826;SDS011;51265;53.972;12.286;2023-04-29T01:55:05;17.13;;;9.82;;
64826;SDS011;51265;53.972;12.286;2023-04-29T01:57:43;16.77;;;8.88;;
64826;SDS011;51265;53.972;12.286;2023-04-29T02:00:18;21.90;;;10.10;;
64826;SDS011;51265;53.972;12.286;2023-04-29T02:02:50;16.08;;;9.93;;
64826;SDS011;51265;53.972;12.286;2023-04-29T02:05:49;17.02;;;9.57;;
64826;SDS011;51265;53.972;12.286;2023-04-29T02:08:16;17.92;;;9.63;;
64826;SDS011;51265;53.972;12.286;2023-04-29T02:10:51;13.70;;;8.85;;
64826;SDS011;51265;53.972;12.286;2023-04-29T02:13:30;16.50;;;9.50;;
64826;SDS011;51265;53.972;12.286;2023-04-29T02:16:05;17.88;;;10.05;;
64826;SDS011;51265;53.972;12.286;2023-04-29T02:18:37;17.63;;;9.05;;
64826;SDS011;51265;53.972;12.286;2023-04-29T02:21:04;19.98;;;9.52;;
64826;SDS011;51265;53.972;12.286;2023-04-29T02:23:34;16.52;;;10.68;;
64826;SDS011;51265;53.972;12.286;2023-04-29T02:26:01;17.45;;;10.75;;
64826;SDS011;51265;53.972;12.286;2023-04-29T02:28:30;17.42;;;9.63;;
64826;SDS011;51265;53.972;12.286;2023-04-29T02:30:57;19.40;;;10.88;;
64826;SDS011;51265;53.972;12.286;2023-04-29T02:33:23;20.30;;;10.25;;
64826;SDS011;51265;53.972;12.286;2023-04-29T02:35:50;22.20;;;10.77;;
64826;SDS011;51265;53.972;12.286;2023-04-29T02:38:16;21.35;;;11.32;;
64826;SDS011;51265;53.972;12.286;2023-04-29T02:40:43;25.02;;;11.93;;
64826;SDS011;51265;53.972;12.286;2023-04-29T02:43:10;21.27;;;10.45;;
64826;SDS011;51265;53.972;12.286;2023-04-29T02:45:37;17.73;;;10.82;;
64826;SDS011;51265;53.972;12.286;2023-04-29T02:48:05;19.45;;;10.48;;
64826;SDS011;51265;53.972;12.286;2023-04-29T02:50:31;20.58;;;11.23;;
64826;SDS011;51265;53.972;12.286;2023-04-29T02:52:59;22.27;;;12.07;;
64826;SDS011;51265;53.972;12.286;2023-04-29T02:55:25;19.88;;;11.82;;
64826;SDS011;51265;53.972;12.286;2023-04-29T02:57:54;18.02;;;11.48;;
64826;SDS011;51265;53.972;12.286;2023-04-29T03:00:21;23.52;;;12.27;;
64826;SDS011;51265;53.972;12.286;2023-04-29T03:02:47;21.70;;;12.55;;
64826;SDS011;51265;53.972;12.286;2023-04-29T03:05:14;19.40;;;12.40;;
64826;SDS011;51265;53.972;12.286;2023-04-29T03:07:40;22.33;;;12.27;;
64826;SDS011;51265;53.972;12.286;2023-04-29T03:10:07;19.08;;;11.27;;
64826;SDS011;51265;53.972;12.286;2023-04-29T03:12:37;22.70;;;11.70;;
64826;SDS011;51265;53.972;12.286;2023-04-29T03:15:07;23.20;;;11.77;;
64826;SDS011;51265;53.972;12.286;2023-04-29T03:17:36;21.75;;;12.52;;
64826;SDS011;51265;53.972;12.286;2023-04-29T03:20:03;20.08;;;11.68;;
64826;SDS011;51265;53.972;12.286;2023-04-29T03:22:30;18.38;;;12.10;;
64826;SDS011;51265;53.972;12.286;2023-04-29T03:24:56;22.98;;;13.50;;
64826;SDS011;51265;53.972;12.286;2023-04-29T03:27:23;23.13;;;13.00;;
64826;SDS011;51265;53.972;12.286;2023-04-29T03:29:49;25.23;;;13.43;;
64826;SDS011;51265;53.972;12.286;2023-04-29T03:32:16;23.35;;;13.38;;
64826;SDS011;51265;53.972;12.286;2023-04-29T03:34:44;28.30;;;13.00;;
64826;SDS011;51265;53.972;12.286;2023-04-29T03:37:30;20.30;;;12.05;;
64826;SDS011;51265;53.972;12.286;2023-04-29T03:40:11;24.15;;;12.82;;
64826;SDS011;51265;53.972;12.286;2023-04-29T03:42:39;22.10;;;12.77;;
64826;SDS011;51265;53.972;12.286;2023-04-29T03:45:05;25.92;;;12.77;;
64826;SDS011;51265;53.972;12.286;2023-04-29T03:47:32;19.17;;;12.48;;
64826;SDS011;51265;53.972;12.286;2023-04-29T03:50:00;25.60;;;12.07;;
64826;SDS011;51265;53.972;12.286;2023-04-29T03:52:26;20.13;;;12.07;;
64826;SDS011;51265;53.972;12.286;2023-04-29T03:54:58;26.50;;;13.00;;
64826;SDS011;51265;53.972;12.286;2023-04-29T03:57:25;21.58;;;12.82;;
64826;SDS011;51265;53.972;12.286;2023-04-29T03:59:53;26.02;;;13.73;;
64826;SDS011;51265;53.972;12.286;2023-04-29T04:02:20;26.52;;;12.88;;
64826;SDS011;51265;53.972;12.286;2023-04-29T04:04:47;27.60;;;13.15;;
64826;SDS011;51265;53.972;12.286;2023-04-29T04:07:13;22.35;;;12.10;;
64826;SDS011;51265;53.972;12.286;2023-04-29T04:09:59;22.75;;;12.02;;
64826;SDS011;51265;53.972;12.286;2023-04-29T04:12:26;24.88;;;12.10;;
64826;SDS011;51265;53.972;12.286;2023-04-29T04:14:52;22.02;;;13.02;;
64826;SDS011;51265;53.972;12.286;2023-04-29T04:17:20;25.33;;;13.05;;
64826;SDS011;51265;53.972;12.286;2023-04-29T04:19:46;21.95;;;13.10;;
64826;SDS011;51265;53.972;12.286;2023-04-29T04:22:13;22.15;;;13.00;;
64826;SDS011;51265;53.972;12.286;2023-04-29T04:27:13;31.67;;;18.90;;
64826;SDS011;51265;53.972;12.286;2023-04-29T04:29:44;31.27;;;13.63;;
64826;SDS011;51265;53.972;12.286;2023-04-29T04:32:15;21.77;;;12.88;;
64826;SDS011;51265;53.972;12.286;2023-04-29T04:34:43;24.30;;;12.80;;
64826;SDS011;51265;53.972;12.286;2023-04-29T04:37:09;24.10;;;13.40;;
64826;SDS011;51265;53.972;12.286;2023-04-29T04:39:37;26.25;;;12.55;;
64826;SDS011;51265;53.972;12.286;2023-04-29T04:42:04;21.17;;;13.40;;
64826;SDS011;51265;53.972;12.286;2023-04-29T04:44:33;24.27;;;13.45;;
64826;SDS011;51265;53.972;12.286;2023-04-29T04:47:05;25.73;;;12.95;;
64826;SDS011;51265;53.972;12.286;2023-04-29T04:49:57;24.52;;;13.70;;
64826;SDS011;51265;53.972;12.286;2023-04-29T04:52:23;27.17;;;13.30;;
64826;SDS011;51265;53.972;12.286;2023-04-29T04:55:01;25.23;;;14.05;;
64826;SDS011;51265;53.972;12.286;2023-04-29T04:57:29;26.70;;;12.40;;
64826;SDS011;51265;53.972;12.286;2023-04-29T05:00:00;27.10;;;12.85;;
64826;SDS011;51265;53.972;12.286;2023-04-29T05:02:27;28.38;;;13.70;;
64826;SDS011;51265;53.972;12.286;2023-04-29T05:04:53;34.90;;;14.00;;
64826;SDS011;51265;53.972;12.286;2023-04-29T05:07:24;25.73;;;14.38;;
64826;SDS011;51265;53.972;12.286;2023-04-29T05:10:03;25.45;;;13.88;;
64826;SDS011;51265;53.972;12.286;2023-04-29T05:12:33;28.08;;;14.98;;
64826;SDS011;51265;53.972;12.286;2023-04-29T05:15:01;26.70;;;14.70;;
64826;SDS011;51265;53.972;12.286;2023-04-29T05:17:30;32.40;;;13.73;;
64826;SDS011;51265;53.972;12.286;2023-04-29T05:19:57;31.80;;;15.07;;
64826;SDS011;51265;53.972;12.286;2023-04-29T05:22:24;30.35;;;14.55;;
64826;SDS011;51265;53.972;12.286;2023-04-29T05:24:50;28.73;;;14.65;;
64826;SDS011;51265;53.972;12.286;2023-04-29T05:27:18;24.85;;;13.75;;
64826;SDS011;51265;53.972;12.286;2023-04-29T05:29:47;31.35;;;14.05;;
64826;SDS011;51265;53.972;12.286;2023-04-29T05:32:14;25.98;;;14.00;;
64826;SDS011;51265;53.972;12.286;2023-04-29T05:34:40;30.02;;;14.32;;
64826;SDS011;51265;53.972;12.286;2023-04-29T05:37:07;31.40;;;14.30;;
64826;SDS011;51265;53.972;12.286;2023-04-29T05:39:43;26.52;;;14.52;;
64826;SDS011;51265;53.972;12.286;2023-04-29T05:42:14;26.17;;;14.27;;
64826;SDS011;51265;53.972;12.286;2023-04-29T05:44:45;27.67;;;14.43;;
64826;SDS011;51265;53.972;12.286;2023-04-29T05:47:11;29.00;;;14.05;;
64826;SDS011;51265;53.972;12.286;2023-04-29T05:49:39;26.60;;;14.27;;
64826;SDS011;51265;53.972;12.286;2023-04-29T05:52:05;23.60;;;14.30;;
64826;SDS011;51265;53.972;12.286;2023-04-29T05:54:36;30.33;;;14.98;;
64826;SDS011;51265;53.972;12.286;2023-04-29T05:57:03;25.73;;;14.48;;
64826;SDS011;51265;53.972;12.286;2023-04-29T05:59:29;30.83;;;14.52;;
64826;SDS011;51265;53.972;12.286;2023-04-29T06:01:58;27.63;;;14.15;;
64826;SDS011;51265;53.972;12.286;2023-04-29T06:04:25;30.25;;;13.88;;
64826;SDS011;51265;53.972;12.286;2023-04-29T06:07:11;28.13;;;14.75;;
64826;SDS011;51265;53.972;12.286;2023-04-29T06:10:09;29.85;;;15.25;;
64826;SDS011;51265;53.972;12.286;2023-04-29T06:12:36;25.95;;;14.55;;
64826;SDS011;51265;53.972;12.286;2023-04-29T06:15:03;31.63;;;15.10;;
64826;SDS011;51265;53.972;12.286;2023-04-29T06:17:29;30.80;;;16.13;;
64826;SDS011;51265;53.972;12.286;2023-04-29T06:19:57;33.95;;;14.65;;
64826;SDS011;51265;53.972;12.286;2023-04-29T06:22:23;24.83;;;14.65;;
64826;SDS011;51265;53.972;12.286;2023-04-29T06:24:52;28.45;;;13.75;;
64826;SDS011;51265;53.972;12.286;2023-04-29T06:27:33;23.50;;;14.27;;
64826;SDS011;51265;53.972;12.286;2023-04-29T06:30:00;32.08;;;14.25;;
64826;SDS011;51265;53.972;12.286;2023-04-29T06:32:26;25.05;;;14.68;;
64826;SDS011;51265;53.972;12.286;2023-04-29T06:34:53;27.45;;;14.23;;
64826;SDS011;51265;53.972;12.286;2023-04-29T06:37:30;24.42;;;12.93;;
64826;SDS011;51265;53.972;12.286;2023-04-29T06:40:10;23.13;;;13.15;;
64826;SDS011;51265;53.972;12.286;2023-04-29T06:42:57;22.35;;;12.95;;
64826;SDS011;51265;53.972;12.286;2023-04-29T06:45:47;27.35;;;14.48;;
64826;SDS011;51265;53.972;12.286;2023-04-29T06:48:36;24.05;;;12.20;;
64826;SDS011;51265;53.972;12.286;2023-04-29T06:51:03;28.80;;;13.85;;
64826;SDS011;51265;53.972;12.286;2023-04-29T06:53:30;17.77;;;12.23;;
64826;SDS011;51265;53.972;12.286;2023-04-29T06:55:56;24.60;;;13.20;;
64826;SDS011;51265;53.972;12.286;2023-04-29T06:58:22;27.65;;;13.27;;
64826;SDS011;51265;53.972;12.286;2023-04-29T07:00:49;21.63;;;13.05;;
64826;SDS011;51265;53.972;12.286;2023-04-29T07:03:16;19.58;;;12.15;;
64826;SDS011;51265;53.972;12.286;2023-04-29T07:05:44;19.90;;;10.88;;
64826;SDS011;51265;53.972;12.286;2023-04-29T07:08:11;19.63;;;11.50;;
64826;SDS011;51265;53.972;12.286;2023-04-29T07:10:38;17.42;;;10.85;;
64826;SDS011;51265;53.972;12.286;2023-04-29T07:13:05;19.45;;;10.98;;
64826;SDS011;51265;53.972;12.286;2023-04-29T07:15:35;20.92;;;11.27;;
64826;SDS011;51265;53.972;12.286;2023-04-29T07:18:03;17.92;;;10.98;;
64826;SDS011;51265;53.972;12.286;2023-04-29T07:20:30;17.02;;;10.60;;
64826;SDS011;51265;53.972;12.286;2023-04-29T07:22:56;17.80;;;11.60;;
64826;SDS011;51265;53.972;12.286;2023-04-29T07:25:25;18.77;;;12.00;;
64826;SDS011;51265;53.972;12.286;2023-04-29T07:27:52;18.00;;;12.52;;
64826;SDS011;51265;53.972;12.286;2023-04-29T07:30:19;19.88;;;12.48;;
64826;SDS011;51265;53.972;12.286;2023-04-29T07:32:46;18.27;;;11.95;;
64826;SDS011;51265;53.972;12.286;2023-04-29T07:35:12;20.83;;;11.93;;
64826;SDS011;51265;53.972;12.286;2023-04-29T07:37:39;20.17;;;11.15;;
64826;SDS011;51265;53.972;12.286;2023-04-29T07:40:06;22.30;;;12.27;;
64826;SDS011;51265;53.972;12.286;2023-04-29T07:42:33;19.27;;;12.02;;
64826;SDS011;51265;53.972;12.286;2023-04-29T07:45:00;18.25;;;12.70;;
64826;SDS011;51265;53.972;12.286;2023-04-29T07:47:27;20.77;;;12.43;;
64826;SDS011;51265;53.972;12.286;2023-04-29T07:49:54;23.75;;;12.85;;
64826;SDS011;51265;53.972;12.286;2023-04-29T07:52:21;17.55;;;10.77;;
64826;SDS011;51265;53.972;12.286;2023-04-29T07:54:48;19.98;;;12.20;;
64826;SDS011;51265;53.972;12.286;2023-04-29T07:57:15;18.85;;;11.40;;
64826;SDS011;51265;53.972;12.286;2023-04-29T07:59:41;17.17;;;10.88;;
64826;SDS011;51265;53.972;12.286;2023-04-29T08:02:08;20.48;;;11.25;;
64826;SDS011;51265;53.972;12.286;2023-04-29T08:04:37;17.00;;;11.43;;
64826;SDS011;51265;53.972;12.286;2023-04-29T08:07:08;17.80;;;9.65;;
64826;SDS011;51265;53.972;12.286;2023-04-29T08:09:35;15.63;;;9.25;;
64826;SDS011;51265;53.972;12.286;2023-04-29T08:12:03;16.42;;;10.05;;
64826;SDS011;51265;53.972;12.286;2023-04-29T08:14:30;18.23;;;8.63;;
64826;SDS011;51265;53.972;12.286;2023-04-29T08:16:58;17.80;;;8.35;;
64826;SDS011;51265;53.972;12.286;2023-04-29T08:19:24;14.40;;;7.47;;
64826;SDS011;51265;53.972;12.286;2023-04-29T08:21:51;14.57;;;7.72;;
64826;SDS011;51265;53.972;12.286;2023-04-29T08:24:21;14.00;;;6.97;;
64826;SDS011;51265;53.972;12.286;2023-04-29T08:27:02;14.18;;;5.90;;
64826;SDS011;51265;53.972;12.286;2023-04-29T08:29:30;11.63;;;6.90;;
64826;SDS011;51265;53.972;12.286;2023-04-29T08:31:58;13.35;;;7.00;;
64826;SDS011;51265;53.972;12.286;2023-04-29T08:34:24;11.32;;;6.13;;
64826;SDS011;51265;53.972;12.286;2023-04-29T08:36:51;10.80;;;6.60;;
64826;SDS011;51265;53.972;12.286;2023-04-29T08:39:17;14.80;;;6.88;;
64826;SDS011;51265;53.972;12.286;2023-04-29T08:41:44;10.95;;;5.72;;
64826;SDS011;51265;53.972;12.286;2023-04-29T08:44:14;10.82;;;6.32;;
64826;SDS011;51265;53.972;12.286;2023-04-29T08:46:45;12.07;;;6.20;;
64826;SDS011;51265;53.972;12.286;2023-04-29T08:49:12;10.73;;;5.00;;
64826;SDS011;51265;53.972;12.286;2023-04-29T08:51:38;14.18;;;5.20;;
64826;SDS011;51265;53.972;12.286;2023-04-29T08:54:05;7.93;;;5.60;;
64826;SDS011;51265;53.972;12.286;2023-04-29T08:56:32;7.50;;;4.30;;
64826;SDS011;51265;53.972;12.286;2023-04-29T08:59:00;9.45;;;5.03;;
64826;SDS011;51265;53.972;12.286;2023-04-29T09:01:27;10.45;;;4.95;;
64826;SDS011;51265;53.972;12.286;2023-04-29T09:04:03;9.38;;;4.70;;
64826;SDS011;51265;53.972;12.286;2023-04-29T09:06:52;10.90;;;4.88;;
64826;SDS011;51265;53.972;12.286;2023-04-29T09:09:23;7.20;;;4.50;;
64826;SDS011;51265;53.972;12.286;2023-04-29T09:11:50;12.60;;;5.75;;
64826;SDS011;51265;53.972;12.286;2023-04-29T09:14:18;10.27;;;5.15;;
64826;SDS011;51265;53.972;12.286;2023-04-29T09:16:46;9.98;;;5.78;;
64826;SDS011;51265;53.972;12.286;2023-04-29T09:19:27;11.70;;;5.35;;
64826;SDS011;51265;53.972;12.286;2023-04-29T09:21:56;11.85;;;6.18;;
64826;SDS011;51265;53.972;12.286;2023-04-29T09:24:26;10.98;;;6.40;;
64826;SDS011;51265;53.972;12.286;2023-04-29T09:26:53;13.27;;;6.30;;
64826;SDS011;51265;53.972;12.286;2023-04-29T09:29:20;14.55;;;6.00;;
64826;SDS011;51265;53.972;12.286;2023-04-29T09:31:47;8.98;;;5.75;;
64826;SDS011;51265;53.972;12.286;2023-04-29T09:34:14;12.35;;;5.60;;
64826;SDS011;51265;53.972;12.286;2023-04-29T09:36:50;10.68;;;5.38;;
64826;SDS011;51265;53.972;12.286;2023-04-29T09:39:22;9.63;;;5.97;;
64826;SDS011;51265;53.972;12.286;2023-04-29T09:44:22;16.45;;;7.40;;
64826;SDS011;51265;53.972;12.286;2023-04-29T09:47:00;14.65;;;5.85;;
64826;SDS011;51265;53.972;12.286;2023-04-29T09:49:30;12.90;;;5.97;;
64826;SDS011;51265;53.972;12.286;2023-04-29T09:51:59;15.10;;;6.15;;
64826;SDS011;51265;53.972;12.286;2023-04-29T09:54:27;11.20;;;6.28;;
64826;SDS011;51265;53.972;12.286;2023-04-29T09:56:55;11.90;;;6.40;;
64826;SDS011;51265;53.972;12.286;2023-04-29T09:59:23;10.60;;;6.15;;
64826;SDS011;51265;53.972;12.286;2023-04-29T10:01:53;14.18;;;6.97;;
64826;SDS011;51265;53.972;12.286;2023-04-29T10:04:22;16.15;;;6.38;;
64826;SDS011;51265;53.972;12.286;2023-04-29T10:06:53;14.43;;;7.00;;
64826;SDS011;51265;53.972;12.286;2023-04-29T10:09:21;11.98;;;6.95;;
64826;SDS011;51265;53.972;12.286;2023-04-29T10:11:48;12.85;;;6.53;;
64826;SDS011;51265;53.972;12.286;2023-04-29T10:14:20;13.50;;;7.00;;
64826;SDS011;51265;53.972;12.286;2023-04-29T10:21:59;12.52;;;6.07;;
64826;SDS011;51265;53.972;12.286;2023-04-29T10:24:32;10.93;;;5.68;;
64826;SDS011;51265;53.972;12.286;2023-04-29T10:27:02;11.68;;;5.65;;
64826;SDS011;51265;53.972;12.286;2023-04-29T10:29:33;13.43;;;5.90;;
64826;SDS011;51265;53.972;12.286;2023-04-29T10:32:03;9.63;;;5.28;;
64826;SDS011;51265;53.972;12.286;2023-04-29T10:34:32;9.88;;;5.50;;
64826;SDS011;51265;53.972;12.286;2023-04-29T10:37:01;13.10;;;5.75;;
64826;SDS011;51265;53.972;12.286;2023-04-29T10:39:36;8.90;;;5.50;;
64826;SDS011;51265;53.972;12.286;2023-04-29T10:53:14;9.80;;;4.43;;
64826;SDS011;51265;53.972;12.286;2023-04-29T10:55:44;12.38;;;4.43;;
64826;SDS011;51265;53.972;12.286;2023-04-29T11:01:02;5.97;;;4.20;;
64826;SDS011;51265;53.972;12.286;2023-04-29T11:03:43;9.05;;;4.47;;
64826;SDS011;51265;53.972;12.286;2023-04-29T11:06:15;7.93;;;4.35;;
64826;SDS011;51265;53.972;12.286;2023-04-29T11:08:42;8.50;;;3.83;;
64826;SDS011;51265;53.972;12.286;2023-04-29T11:11:08;7.72;;;4.45;;
64826;SDS011;51265;53.972;12.286;2023-04-29T11:13:38;7.45;;;4.45;;
64826;SDS011;51265;53.972;12.286;2023-04-29T11:16:06;9.23;;;4.57;;
64826;SDS011;51265;53.972;12.286;2023-04-29T11:18:34;7.97;;;4.32;;
64826;SDS011;51265;53.972;12.286;2023-04-29T11:23:34;6.43;;;3.97;;
64826;SDS011;51265;53.972;12.286;2023-04-29T11:26:02;8.13;;;4.03;;
64826;SDS011;51265;53.972;12.286;2023-04-29T11:28:30;7.07;;;3.75;;
64826;SDS011;51265;53.972;12.286;2023-04-29T11:30:58;10.00;;;4.22;;
64826;SDS011;51265;53.972;12.286;2023-04-29T11:33:25;8.07;;;3.78;;
64826;SDS011;51265;53.972;12.286;2023-04-29T11:35:53;8.10;;;4.72;;
64826;SDS011;51265;53.972;12.286;2023-04-29T11:38:26;6.70;;;3.65;;
64826;SDS011;51265;53.972;12.286;2023-04-29T11:40:54;7.03;;;4.07;;
64826;SDS011;51265;53.972;12.286;2023-04-29T11:43:25;7.78;;;3.83;;
64826;SDS011;51265;53.972;12.286;2023-04-29T11:45:52;6.60;;;3.60;;
64826;SDS011;51265;53.972;12.286;2023-04-29T11:48:22;7.45;;;3.72;;
64826;SDS011;51265;53.972;12.286;2023-04-29T11:50:50;7.95;;;3.85;;
64826;SDS011;51265;53.972;12.286;2023-04-29T11:53:19;6.75;;;3.75;;
64826;SDS011;51265;53.972;12.286;2023-04-29T11:55:46;10.65;;;3.67;;
64826;SDS011;51265;53.972;12.286;2023-04-29T11:58:16;8.25;;;3.83;;
64826;SDS011;51265;53.972;12.286;2023-04-29T12:00:43;4.18;;;3.08;;
64826;SDS011;51265;53.972;12.286;2023-04-29T12:03:16;6.93;;;3.30;;
64826;SDS011;51265;53.972;12.286;2023-04-29T12:05:47;8.57;;;3.22;;
64826;SDS011;51265;53.972;12.286;2023-04-29T12:08:22;7.07;;;3.28;;
64826;SDS011;51265;53.972;12.286;2023-04-29T12:10:50;10.48;;;3.22;;
64826;SDS011;51265;53.972;12.286;2023-04-29T12:13:18;5.55;;;3.30;;
64826;SDS011;51265;53.972;12.286;2023-04-29T12:15:45;7.03;;;3.80;;
64826;SDS011;51265;53.972;12.286;2023-04-29T12:18:13;7.97;;;4.60;;
64826;SDS011;51265;53.972;12.286;2023-04-29T12:20:41;8.25;;;4.60;;
64826;SDS011;51265;53.972;12.286;2023-04-29T12:23:12;8.38;;;4.22;;
64826;SDS011;51265;53.972;12.286;2023-04-29T12:25:38;9.93;;;4.30;;
64826;SDS011;51265;53.972;12.286;2023-04-29T12:28:11;8.52;;;4.03;;
64826;SDS011;51265;53.972;12.286;2023-04-29T12:30:38;9.60;;;3.17;;
64826;SDS011;51265;53.972;12.286;2023-04-29T12:33:08;6.15;;;3.40;;
64826;SDS011;51265;53.972;12.286;2023-04-29T12:35:35;6.03;;;3.42;;
64826;SDS011;51265;53.972;12.286;2023-04-29T12:38:02;7.90;;;3.72;;
64826;SDS011;51265;53.972;12.286;2023-04-29T12:40:28;5.72;;;3.38;;
64826;SDS011;51265;53.972;12.286;2023-04-29T12:42:56;6.15;;;3.00;;
64826;SDS011;51265;53.972;12.286;2023-04-29T12:45:29;4.90;;;3.53;;
64826;SDS011;51265;53.972;12.286;2023-04-29T12:47:57;6.28;;;3.65;;
64826;SDS011;51265;53.972;12.286;2023-04-29T12:50:28;6.47;;;3.50;;
64826;SDS011;51265;53.972;12.286;2023-04-29T12:55:24;8.02;;;3.20;;
64826;SDS011;51265;53.972;12.286;2023-04-29T12:57:50;6.80;;;3.72;;
64826;SDS011;51265;53.972;12.286;2023-04-29T13:00:17;7.70;;;3.72;;
64826;SDS011;51265;53.972;12.286;2023-04-29T13:02:45;7.72;;;4.00;;
64826;SDS011;51265;53.972;12.286;2023-04-29T13:05:12;10.98;;;4.25;;
64826;SDS011;51265;53.972;12.286;2023-04-29T13:07:39;7.30;;;4.20;;
64826;SDS011;51265;53.972;12.286;2023-04-29T13:10:05;8.93;;;4.40;;
64826;SDS011;51265;53.972;12.286;2023-04-29T13:12:32;9.63;;;4.75;;
64826;SDS011;51265;53.972;12.286;2023-04-29T13:14:58;10.88;;;4.70;;
64826;SDS011;51265;53.972;12.286;2023-04-29T13:17:25;9.15;;;4.70;;
64826;SDS011;51265;53.972;12.286;2023-04-29T13:19:51;8.18;;;3.83;;
64826;SDS011;51265;53.972;12.286;2023-04-29T13:22:18;6.78;;;3.63;;
64826;SDS011;51265;53.972;12.286;2023-04-29T13:24:44;7.07;;;3.25;;
64826;SDS011;51265;53.972;12.286;2023-04-29T13:27:11;3.17;;;2.03;;
64826;SDS011;51265;53.972;12.286;2023-04-29T13:29:38;4.25;;;2.90;;
64826;SDS011;51265;53.972;12.286;2023-04-29T13:32:04;7.50;;;4.18;;
64826;SDS011;51265;53.972;12.286;2023-04-29T13:34:30;6.78;;;3.90;;
64826;SDS011;51265;53.972;12.286;2023-04-29T13:36:57;7.85;;;3.20;;
64826;SDS011;51265;53.972;12.286;2023-04-29T13:39:23;7.28;;;3.80;;
64826;SDS011;51265;53.972;12.286;2023-04-29T13:41:49;7.28;;;3.20;;
64826;SDS011;51265;53.972;12.286;2023-04-29T13:44:16;7.55;;;2.90;;
64826;SDS011;51265;53.972;12.286;2023-04-29T13:46:43;7.10;;;4.50;;
64826;SDS011;51265;53.972;12.286;2023-04-29T13:49:11;6.93;;;4.18;;
64826;SDS011;51265;53.972;12.286;2023-04-29T13:51:37;7.20;;;3.60;;
64826;SDS011;51265;53.972;12.286;2023-04-29T13:54:04;6.00;;;3.70;;
64826;SDS011;51265;53.972;12.286;2023-04-29T13:56:31;8.32;;;4.85;;
64826;SDS011;51265;53.972;12.286;2023-04-29T13:58:57;8.65;;;4.15;;
64826;SDS011;51265;53.972;12.286;2023-04-29T14:01:23;6.65;;;3.85;;
64826;SDS011;51265;53.972;12.286;2023-04-29T14:03:49;9.05;;;3.33;;
64826;SDS011;51265;53.972;12.286;2023-04-29T14:06:16;7.15;;;3.67;;
64826;SDS011;51265;53.972;12.286;2023-04-29T14:08:42;11.27;;;3.70;;
64826;SDS011;51265;53.972;12.286;2023-04-29T14:11:09;6.03;;;3.50;;
64826;SDS011;51265;53.972;12.286;2023-04-29T14:13:35;7.70;;;3.63;;
64826;SDS011;51265;53.972;12.286;2023-04-29T14:16:01;5.82;;;3.40;;
64826;SDS011;51265;53.972;12.286;2023-04-29T14:18:30;8.93;;;4.07;;
64826;SDS011;51265;53.972;12.286;2023-04-29T14:20:57;6.18;;;4.05;;
64826;SDS011;51265;53.972;12.286;2023-04-29T14:23:24;6.38;;;3.60;;
64826;SDS011;51265;53.972;12.286;2023-04-29T14:25:51;7.10;;;4.03;;
64826;SDS011;51265;53.972;12.286;2023-04-29T14:28:17;9.88;;;5.43;;
64826;SDS011;51265;53.972;12.286;2023-04-29T14:30:43;7.20;;;4.45;;
64826;SDS011;51265;53.972;12.286;2023-04-29T14:33:10;7.72;;;5.00;;
64826;SDS011;51265;53.972;12.286;2023-04-29T14:35:36;9.30;;;4.80;;
64826;SDS011;51265;53.972;12.286;2023-04-29T14:38:03;7.63;;;5.75;;
64826;SDS011;51265;53.972;12.286;2023-04-29T14:40:29;8.10;;;5.68;;
64826;SDS011;51265;53.972;12.286;2023-04-29T14:42:55;12.43;;;6.22;;
64826;SDS011;51265;53.972;12.286;2023-04-29T14:45:22;9.32;;;5.50;;
64826;SDS011;51265;53.972;12.286;2023-04-29T14:47:48;9.82;;;6.07;;
64826;SDS011;51265;53.972;12.286;2023-04-29T14:50:14;9.73;;;5.78;;
64826;SDS011;51265;53.972;12.286;2023-04-29T14:52:41;9.40;;;6.10;;
64826;SDS011;51265;53.972;12.286;2023-04-29T14:55:07;12.88;;;6.10;;
64826;SDS011;51265;53.972;12.286;2023-04-29T14:57:34;10.30;;;6.13;;
64826;SDS011;51265;53.972;12.286;2023-04-29T15:00:00;10.18;;;6.78;;
64826;SDS011;51265;53.972;12.286;2023-04-29T15:02:27;9.15;;;5.97;;
64826;SDS011;51265;53.972;12.286;2023-04-29T15:04:53;10.23;;;5.88;;
64826;SDS011;51265;53.972;12.286;2023-04-29T15:07:20;9.57;;;6.43;;
64826;SDS011;51265;53.972;12.286;2023-04-29T15:09:47;9.93;;;6.00;;